Accueil
METAR-TAF:

METAR-TAF

Aéroports :

Wattisham, Angleterre

latitude: 52-07N, longitude: 000-58E, altitude: 87 m

Observation

Le bulletin a été fait il y a 1 heure et 6 minutes, à 06:50 UTC
Vent 5 kt de ouest/sud-ouest
Température -2°C
Humidité 100%
Pression 1041 hPa
Visibilité: 2000 m
Ciel clair
brume

METAR: EGUW 210650Z 25005KT 2000 BR SKC M02/M02 Q1041 RMK YLO2

Heure: 07:56 (07:56 UTC)

Prévision

Le bulletin a été fait il y a 19 minutes, à 07:37 UTC
Prévision valable du 21 à 07 UTC au 21 à 15 UTC
Vent 5 kt de ouest/sud-ouest
Visibilité: 2000 m
brume
Evoluant progressivement
du 21 à 08 UTC au 21 à 11 UTC
Visibilité: 6000 m
Nuages épars à une hauteur de 1200 ft
brume
Evoluant progressivement
du 21 à 12 UTC au 21 à 15 UTC
Visibilité 10 km ou plus
Nuages épars à une hauteur de 1500 ft

TAF: EGUW 210737Z 2107/2115 25005KT 2000 BR NSC BECMG 2108/2111 6000 BR SCT012 BECMG 2112/2115 9999 SCT015

Observations et prévisions météorologiques de plus de 4000 aéroports (messages METAR et TAF).

Les stations disponibles sont représentées par des disques jaunes et rouges sur la carte.

Passer la souris dessus pour voir le nom de la station.

Cliquer dessus pour voir les observations et prévisions météorologiques.

Pour changer de carte: cliquez sur les boutons verts avec une croix noire pour zoomer, sur le bouton vert avec un tiret pour effectuer un zoom arrière, ou sur les flèches vertes pour les cartes adjacentes.


METAR-TAF: